sensor_id;sensor_type;location;lat;lon;timestamp;P1;durP1;ratioP1;P2;durP2;ratioP2
59338;SDS011;45117;50.960;5.500;2023-07-02T00:01:11;19.95;;;7.53;;
59338;SDS011;45117;50.960;5.500;2023-07-02T00:03:38;19.30;;;7.38;;
59338;SDS011;45117;50.960;5.500;2023-07-02T00:06:04;19.27;;;7.53;;
59338;SDS011;45117;50.960;5.500;2023-07-02T00:08:31;15.43;;;7.45;;
59338;SDS011;45117;50.960;5.500;2023-07-02T00:10:59;16.42;;;7.10;;
59338;SDS011;45117;50.960;5.500;2023-07-02T00:13:27;16.10;;;7.97;;
59338;SDS011;45117;50.960;5.500;2023-07-02T00:15:53;19.20;;;8.10;;
59338;SDS011;45117;50.960;5.500;2023-07-02T00:18:20;19.30;;;8.10;;
59338;SDS011;45117;50.960;5.500;2023-07-02T00:20:47;20.83;;;8.30;;
59338;SDS011;45117;50.960;5.500;2023-07-02T00:23:16;28.23;;;8.68;;
59338;SDS011;45117;50.960;5.500;2023-07-02T00:25:42;20.20;;;8.43;;
59338;SDS011;45117;50.960;5.500;2023-07-02T00:28:09;24.63;;;9.07;;
59338;SDS011;45117;50.960;5.500;2023-07-02T00:30:37;22.73;;;9.13;;
59338;SDS011;45117;50.960;5.500;2023-07-02T00:33:03;16.85;;;8.60;;
59338;SDS011;45117;50.960;5.500;2023-07-02T00:35:30;24.88;;;9.77;;
59338;SDS011;45117;50.960;5.500;2023-07-02T00:37:57;23.95;;;9.20;;
59338;SDS011;45117;50.960;5.500;2023-07-02T00:40:23;22.92;;;9.65;;
59338;SDS011;45117;50.960;5.500;2023-07-02T00:42:50;22.67;;;9.48;;
59338;SDS011;45117;50.960;5.500;2023-07-02T00:45:16;21.98;;;9.75;;
59338;SDS011;45117;50.960;5.500;2023-07-02T00:47:44;22.75;;;9.57;;
59338;SDS011;45117;50.960;5.500;2023-07-02T00:50:11;26.02;;;9.50;;
59338;SDS011;45117;50.960;5.500;2023-07-02T00:52:38;26.15;;;9.45;;
59338;SDS011;45117;50.960;5.500;2023-07-02T00:55:05;25.85;;;10.77;;
59338;SDS011;45117;50.960;5.500;2023-07-02T00:57:32;24.38;;;10.20;;
59338;SDS011;45117;50.960;5.500;2023-07-02T00:59:59;26.55;;;10.35;;
59338;SDS011;45117;50.960;5.500;2023-07-02T01:02:25;27.20;;;10.23;;
59338;SDS011;45117;50.960;5.500;2023-07-02T01:04:56;31.75;;;11.02;;
59338;SDS011;45117;50.960;5.500;2023-07-02T01:07:24;25.40;;;10.98;;
59338;SDS011;45117;50.960;5.500;2023-07-02T01:09:51;24.30;;;10.20;;
59338;SDS011;45117;50.960;5.500;2023-07-02T01:12:18;24.73;;;11.20;;
59338;SDS011;45117;50.960;5.500;2023-07-02T01:14:47;26.55;;;11.30;;
59338;SDS011;45117;50.960;5.500;2023-07-02T01:17:17;27.75;;;11.00;;
59338;SDS011;45117;50.960;5.500;2023-07-02T01:19:48;22.42;;;10.30;;
59338;SDS011;45117;50.960;5.500;2023-07-02T01:22:18;27.25;;;11.52;;
59338;SDS011;45117;50.960;5.500;2023-07-02T01:24:51;25.80;;;11.63;;
59338;SDS011;45117;50.960;5.500;2023-07-02T01:27:17;29.35;;;11.68;;
59338;SDS011;45117;50.960;5.500;2023-07-02T01:29:45;30.42;;;11.98;;
59338;SDS011;45117;50.960;5.500;2023-07-02T01:32:12;26.48;;;11.82;;
59338;SDS011;45117;50.960;5.500;2023-07-02T01:34:39;28.65;;;12.00;;
59338;SDS011;45117;50.960;5.500;2023-07-02T01:37:10;25.00;;;11.25;;
59338;SDS011;45117;50.960;5.500;2023-07-02T01:39:36;29.42;;;12.00;;
59338;SDS011;45117;50.960;5.500;2023-07-02T01:42:07;30.10;;;12.38;;
59338;SDS011;45117;50.960;5.500;2023-07-02T01:44:34;28.23;;;11.90;;
59338;SDS011;45117;50.960;5.500;2023-07-02T01:47:02;29.10;;;12.38;;
59338;SDS011;45117;50.960;5.500;2023-07-02T01:49:29;31.08;;;12.35;;
59338;SDS011;45117;50.960;5.500;2023-07-02T01:51:56;29.45;;;12.23;;
59338;SDS011;45117;50.960;5.500;2023-07-02T01:54:25;29.35;;;12.65;;
59338;SDS011;45117;50.960;5.500;2023-07-02T01:56:53;31.45;;;12.50;;
59338;SDS011;45117;50.960;5.500;2023-07-02T01:59:19;27.67;;;12.75;;
59338;SDS011;45117;50.960;5.500;2023-07-02T02:01:46;29.10;;;12.52;;
59338;SDS011;45117;50.960;5.500;2023-07-02T02:04:13;32.47;;;13.15;;
59338;SDS011;45117;50.960;5.500;2023-07-02T02:06:40;27.65;;;11.20;;
59338;SDS011;45117;50.960;5.500;2023-07-02T02:09:07;29.70;;;13.07;;
59338;SDS011;45117;50.960;5.500;2023-07-02T02:11:37;28.88;;;12.70;;
59338;SDS011;45117;50.960;5.500;2023-07-02T02:14:05;30.73;;;14.07;;
59338;SDS011;45117;50.960;5.500;2023-07-02T02:16:32;34.63;;;14.15;;
59338;SDS011;45117;50.960;5.500;2023-07-02T02:18:59;31.45;;;13.88;;
59338;SDS011;45117;50.960;5.500;2023-07-02T02:21:26;34.38;;;14.20;;
59338;SDS011;45117;50.960;5.500;2023-07-02T02:23:53;30.63;;;13.55;;
59338;SDS011;45117;50.960;5.500;2023-07-02T02:26:20;36.30;;;14.55;;
59338;SDS011;45117;50.960;5.500;2023-07-02T02:28:49;30.65;;;12.80;;
59338;SDS011;45117;50.960;5.500;2023-07-02T02:31:16;37.92;;;14.98;;
59338;SDS011;45117;50.960;5.500;2023-07-02T02:33:43;34.65;;;14.98;;
59338;SDS011;45117;50.960;5.500;2023-07-02T02:36:10;35.22;;;15.18;;
59338;SDS011;45117;50.960;5.500;2023-07-02T02:38:36;31.20;;;12.85;;
59338;SDS011;45117;50.960;5.500;2023-07-02T02:41:03;36.13;;;14.98;;
59338;SDS011;45117;50.960;5.500;2023-07-02T02:43:31;35.17;;;14.88;;
59338;SDS011;45117;50.960;5.500;2023-07-02T02:45:59;34.90;;;15.27;;
59338;SDS011;45117;50.960;5.500;2023-07-02T02:48:28;36.53;;;15.38;;
59338;SDS011;45117;50.960;5.500;2023-07-02T02:50:55;33.10;;;15.20;;
59338;SDS011;45117;50.960;5.500;2023-07-02T02:53:22;36.72;;;15.18;;
59338;SDS011;45117;50.960;5.500;2023-07-02T02:55:48;29.40;;;13.80;;
59338;SDS011;45117;50.960;5.500;2023-07-02T02:58:15;35.90;;;15.70;;
59338;SDS011;45117;50.960;5.500;2023-07-02T03:00:42;35.15;;;15.02;;
59338;SDS011;45117;50.960;5.500;2023-07-02T03:03:12;38.72;;;15.93;;
59338;SDS011;45117;50.960;5.500;2023-07-02T03:05:39;34.03;;;15.50;;
59338;SDS011;45117;50.960;5.500;2023-07-02T03:08:06;37.88;;;15.90;;
59338;SDS011;45117;50.960;5.500;2023-07-02T03:10:33;36.60;;;15.35;;
59338;SDS011;45117;50.960;5.500;2023-07-02T03:12:59;32.17;;;14.23;;
59338;SDS011;45117;50.960;5.500;2023-07-02T03:15:29;34.22;;;15.23;;
59338;SDS011;45117;50.960;5.500;2023-07-02T03:17:55;36.60;;;16.40;;
59338;SDS011;45117;50.960;5.500;2023-07-02T03:20:24;36.20;;;14.23;;
59338;SDS011;45117;50.960;5.500;2023-07-02T03:22:52;32.70;;;14.80;;
59338;SDS011;45117;50.960;5.500;2023-07-02T03:25:18;41.75;;;17.10;;
59338;SDS011;45117;50.960;5.500;2023-07-02T03:27:45;38.75;;;16.30;;
59338;SDS011;45117;50.960;5.500;2023-07-02T03:30:12;36.97;;;14.38;;
59338;SDS011;45117;50.960;5.500;2023-07-02T03:32:39;37.13;;;16.27;;
59338;SDS011;45117;50.960;5.500;2023-07-02T03:35:06;35.42;;;16.60;;
59338;SDS011;45117;50.960;5.500;2023-07-02T03:37:34;42.10;;;17.02;;
59338;SDS011;45117;50.960;5.500;2023-07-02T03:40:00;43.05;;;16.95;;
59338;SDS011;45117;50.960;5.500;2023-07-02T03:42:27;43.58;;;17.17;;
59338;SDS011;45117;50.960;5.500;2023-07-02T03:44:54;37.72;;;16.30;;
59338;SDS011;45117;50.960;5.500;2023-07-02T03:47:20;38.83;;;17.00;;
59338;SDS011;45117;50.960;5.500;2023-07-02T03:49:47;42.97;;;17.27;;
59338;SDS011;45117;50.960;5.500;2023-07-02T03:52:14;36.13;;;17.40;;
59338;SDS011;45117;50.960;5.500;2023-07-02T03:54:42;40.55;;;16.45;;
59338;SDS011;45117;50.960;5.500;2023-07-02T03:57:08;42.15;;;17.95;;
59338;SDS011;45117;50.960;5.500;2023-07-02T03:59:35;37.40;;;16.15;;
59338;SDS011;45117;50.960;5.500;2023-07-02T04:02:02;42.35;;;17.48;;
59338;SDS011;45117;50.960;5.500;2023-07-02T04:04:28;38.53;;;17.17;;
59338;SDS011;45117;50.960;5.500;2023-07-02T04:06:55;40.70;;;16.90;;
59338;SDS011;45117;50.960;5.500;2023-07-02T04:09:22;39.53;;;17.65;;
59338;SDS011;45117;50.960;5.500;2023-07-02T04:11:50;39.58;;;15.93;;
59338;SDS011;45117;50.960;5.500;2023-07-02T04:14:17;42.17;;;18.52;;
59338;SDS011;45117;50.960;5.500;2023-07-02T04:16:45;42.75;;;17.25;;
59338;SDS011;45117;50.960;5.500;2023-07-02T04:19:11;39.20;;;17.25;;
59338;SDS011;45117;50.960;5.500;2023-07-02T04:21:38;43.65;;;17.80;;
59338;SDS011;45117;50.960;5.500;2023-07-02T04:24:05;43.10;;;18.00;;
59338;SDS011;45117;50.960;5.500;2023-07-02T04:26:32;38.63;;;17.70;;
59338;SDS011;45117;50.960;5.500;2023-07-02T04:28:59;39.22;;;17.30;;
59338;SDS011;45117;50.960;5.500;2023-07-02T04:31:27;43.83;;;18.13;;
59338;SDS011;45117;50.960;5.500;2023-07-02T04:33:54;46.90;;;18.52;;
59338;SDS011;45117;50.960;5.500;2023-07-02T04:36:20;43.83;;;18.85;;
59338;SDS011;45117;50.960;5.500;2023-07-02T04:38:47;47.00;;;18.98;;
59338;SDS011;45117;50.960;5.500;2023-07-02T04:41:14;49.90;;;19.65;;
59338;SDS011;45117;50.960;5.500;2023-07-02T04:43:40;43.08;;;18.58;;
59338;SDS011;45117;50.960;5.500;2023-07-02T04:46:08;42.58;;;17.75;;
59338;SDS011;45117;50.960;5.500;2023-07-02T04:48:37;48.85;;;19.25;;
59338;SDS011;45117;50.960;5.500;2023-07-02T04:51:03;41.58;;;18.15;;
59338;SDS011;45117;50.960;5.500;2023-07-02T04:53:30;47.63;;;18.90;;
59338;SDS011;45117;50.960;5.500;2023-07-02T04:55:57;45.10;;;18.88;;
59338;SDS011;45117;50.960;5.500;2023-07-02T04:58:23;46.42;;;19.30;;
59338;SDS011;45117;50.960;5.500;2023-07-02T05:00:50;45.90;;;18.65;;
59338;SDS011;45117;50.960;5.500;2023-07-02T05:03:18;48.17;;;19.45;;
59338;SDS011;45117;50.960;5.500;2023-07-02T05:05:44;50.17;;;20.45;;
59338;SDS011;45117;50.960;5.500;2023-07-02T05:08:14;48.00;;;19.13;;
59338;SDS011;45117;50.960;5.500;2023-07-02T05:10:41;44.47;;;18.95;;
59338;SDS011;45117;50.960;5.500;2023-07-02T05:13:07;47.92;;;19.75;;
59338;SDS011;45117;50.960;5.500;2023-07-02T05:15:34;47.83;;;18.63;;
59338;SDS011;45117;50.960;5.500;2023-07-02T05:18:00;47.67;;;19.90;;
59338;SDS011;45117;50.960;5.500;2023-07-02T05:20:28;53.60;;;20.52;;
59338;SDS011;45117;50.960;5.500;2023-07-02T05:22:58;48.08;;;19.95;;
59338;SDS011;45117;50.960;5.500;2023-07-02T05:25:25;52.30;;;20.40;;
59338;SDS011;45117;50.960;5.500;2023-07-02T05:27:51;48.67;;;20.08;;
59338;SDS011;45117;50.960;5.500;2023-07-02T05:30:18;48.53;;;20.15;;
59338;SDS011;45117;50.960;5.500;2023-07-02T05:32:44;50.65;;;20.08;;
59338;SDS011;45117;50.960;5.500;2023-07-02T05:35:11;50.35;;;20.25;;
59338;SDS011;45117;50.960;5.500;2023-07-02T05:37:39;44.22;;;18.77;;
59338;SDS011;45117;50.960;5.500;2023-07-02T05:40:06;51.67;;;20.05;;
59338;SDS011;45117;50.960;5.500;2023-07-02T05:42:34;47.10;;;20.17;;
59338;SDS011;45117;50.960;5.500;2023-07-02T05:45:01;48.30;;;20.73;;
59338;SDS011;45117;50.960;5.500;2023-07-02T05:47:28;51.25;;;20.27;;
59338;SDS011;45117;50.960;5.500;2023-07-02T05:49:54;44.70;;;19.50;;
59338;SDS011;45117;50.960;5.500;2023-07-02T05:52:21;43.00;;;18.90;;
59338;SDS011;45117;50.960;5.500;2023-07-02T05:54:49;51.25;;;19.73;;
59338;SDS011;45117;50.960;5.500;2023-07-02T05:57:15;41.67;;;19.00;;
59338;SDS011;45117;50.960;5.500;2023-07-02T05:59:43;52.22;;;20.83;;
59338;SDS011;45117;50.960;5.500;2023-07-02T06:02:09;40.42;;;18.63;;
59338;SDS011;45117;50.960;5.500;2023-07-02T06:04:36;49.88;;;20.10;;
59338;SDS011;45117;50.960;5.500;2023-07-02T06:07:03;46.75;;;20.00;;
59338;SDS011;45117;50.960;5.500;2023-07-02T06:09:29;45.67;;;20.15;;
59338;SDS011;45117;50.960;5.500;2023-07-02T06:11:58;51.65;;;21.52;;
59338;SDS011;45117;50.960;5.500;2023-07-02T06:14:24;47.85;;;18.92;;
59338;SDS011;45117;50.960;5.500;2023-07-02T06:16:52;51.92;;;20.15;;
59338;SDS011;45117;50.960;5.500;2023-07-02T06:19:22;47.55;;;19.95;;
59338;SDS011;45117;50.960;5.500;2023-07-02T06:21:49;46.97;;;19.50;;
59338;SDS011;45117;50.960;5.500;2023-07-02T06:24:15;43.80;;;18.50;;
59338;SDS011;45117;50.960;5.500;2023-07-02T06:26:42;51.78;;;20.27;;
59338;SDS011;45117;50.960;5.500;2023-07-02T06:29:10;56.25;;;22.15;;
59338;SDS011;45117;50.960;5.500;2023-07-02T06:31:36;50.05;;;19.63;;
59338;SDS011;45117;50.960;5.500;2023-07-02T06:34:03;48.70;;;20.83;;
59338;SDS011;45117;50.960;5.500;2023-07-02T06:36:30;52.38;;;20.45;;
59338;SDS011;45117;50.960;5.500;2023-07-02T06:38:56;51.00;;;21.15;;
59338;SDS011;45117;50.960;5.500;2023-07-02T06:41:23;48.85;;;20.73;;
59338;SDS011;45117;50.960;5.500;2023-07-02T06:43:50;51.90;;;20.75;;
59338;SDS011;45117;50.960;5.500;2023-07-02T06:46:19;53.22;;;21.23;;
59338;SDS011;45117;50.960;5.500;2023-07-02T06:48:45;45.08;;;18.08;;
59338;SDS011;45117;50.960;5.500;2023-07-02T06:51:12;51.55;;;20.80;;
59338;SDS011;45117;50.960;5.500;2023-07-02T06:53:40;53.97;;;21.58;;
59338;SDS011;45117;50.960;5.500;2023-07-02T06:56:07;54.83;;;21.10;;
59338;SDS011;45117;50.960;5.500;2023-07-02T06:58:34;49.60;;;21.20;;
59338;SDS011;45117;50.960;5.500;2023-07-02T07:01:00;44.83;;;19.95;;
59338;SDS011;45117;50.960;5.500;2023-07-02T07:03:29;49.88;;;20.98;;
59338;SDS011;45117;50.960;5.500;2023-07-02T07:05:55;46.92;;;20.70;;
59338;SDS011;45117;50.960;5.500;2023-07-02T07:08:22;41.97;;;18.67;;
59338;SDS011;45117;50.960;5.500;2023-07-02T07:10:49;45.17;;;21.30;;
59338;SDS011;45117;50.960;5.500;2023-07-02T07:13:16;50.10;;;21.33;;
59338;SDS011;45117;50.960;5.500;2023-07-02T07:15:43;50.65;;;21.52;;
59338;SDS011;45117;50.960;5.500;2023-07-02T07:18:09;46.92;;;20.65;;
59338;SDS011;45117;50.960;5.500;2023-07-02T07:20:38;54.60;;;21.33;;
59338;SDS011;45117;50.960;5.500;2023-07-02T07:23:04;46.85;;;21.25;;
59338;SDS011;45117;50.960;5.500;2023-07-02T07:25:31;41.97;;;19.40;;
59338;SDS011;45117;50.960;5.500;2023-07-02T07:27:59;50.42;;;21.30;;
59338;SDS011;45117;50.960;5.500;2023-07-02T07:30:26;49.90;;;20.73;;
59338;SDS011;45117;50.960;5.500;2023-07-02T07:32:52;49.92;;;19.80;;
59338;SDS011;45117;50.960;5.500;2023-07-02T07:35:20;48.13;;;20.40;;
59338;SDS011;45117;50.960;5.500;2023-07-02T07:37:49;47.17;;;20.90;;
59338;SDS011;45117;50.960;5.500;2023-07-02T07:40:16;51.63;;;20.67;;
59338;SDS011;45117;50.960;5.500;2023-07-02T07:42:42;47.80;;;20.45;;
59338;SDS011;45117;50.960;5.500;2023-07-02T07:45:09;49.80;;;20.95;;
59338;SDS011;45117;50.960;5.500;2023-07-02T07:47:37;43.47;;;19.60;;
59338;SDS011;45117;50.960;5.500;2023-07-02T07:50:04;46.72;;;20.73;;
59338;SDS011;45117;50.960;5.500;2023-07-02T07:52:35;41.13;;;18.75;;
59338;SDS011;45117;50.960;5.500;2023-07-02T07:55:04;44.15;;;20.38;;
59338;SDS011;45117;50.960;5.500;2023-07-02T07:57:33;42.92;;;19.20;;
59338;SDS011;45117;50.960;5.500;2023-07-02T08:00:00;48.85;;;20.05;;
59338;SDS011;45117;50.960;5.500;2023-07-02T08:02:29;46.22;;;19.02;;
59338;SDS011;45117;50.960;5.500;2023-07-02T08:04:59;47.00;;;19.67;;
59338;SDS011;45117;50.960;5.500;2023-07-02T08:07:25;42.78;;;19.45;;
59338;SDS011;45117;50.960;5.500;2023-07-02T08:09:54;46.13;;;19.92;;
59338;SDS011;45117;50.960;5.500;2023-07-02T08:12:24;44.90;;;19.70;;
59338;SDS011;45117;50.960;5.500;2023-07-02T08:14:51;52.22;;;20.50;;
59338;SDS011;45117;50.960;5.500;2023-07-02T08:17:18;46.05;;;19.40;;
59338;SDS011;45117;50.960;5.500;2023-07-02T08:19:45;44.92;;;19.45;;
59338;SDS011;45117;50.960;5.500;2023-07-02T08:22:11;41.90;;;18.30;;
59338;SDS011;45117;50.960;5.500;2023-07-02T08:24:38;43.25;;;19.50;;
59338;SDS011;45117;50.960;5.500;2023-07-02T08:27:05;42.55;;;18.65;;
59338;SDS011;45117;50.960;5.500;2023-07-02T08:29:46;47.08;;;19.05;;
59338;SDS011;45117;50.960;5.500;2023-07-02T08:32:13;47.63;;;19.63;;
59338;SDS011;45117;50.960;5.500;2023-07-02T08:34:40;45.75;;;19.90;;
59338;SDS011;45117;50.960;5.500;2023-07-02T08:37:07;49.50;;;19.83;;
59338;SDS011;45117;50.960;5.500;2023-07-02T08:39:35;43.03;;;17.45;;
59338;SDS011;45117;50.960;5.500;2023-07-02T08:42:06;43.38;;;18.42;;
59338;SDS011;45117;50.960;5.500;2023-07-02T08:44:35;43.53;;;18.30;;
59338;SDS011;45117;50.960;5.500;2023-07-02T08:47:07;36.22;;;15.30;;
59338;SDS011;45117;50.960;5.500;2023-07-02T08:49:35;36.38;;;14.68;;
59338;SDS011;45117;50.960;5.500;2023-07-02T08:52:02;33.78;;;14.65;;
59338;SDS011;45117;50.960;5.500;2023-07-02T08:54:28;40.60;;;15.35;;
59338;SDS011;45117;50.960;5.500;2023-07-02T08:56:55;30.10;;;14.02;;
59338;SDS011;45117;50.960;5.500;2023-07-02T08:59:25;34.15;;;15.15;;
59338;SDS011;45117;50.960;5.500;2023-07-02T09:01:56;34.45;;;14.07;;
59338;SDS011;45117;50.960;5.500;2023-07-02T09:04:35;34.25;;;14.23;;
59338;SDS011;45117;50.960;5.500;2023-07-02T09:07:03;27.55;;;12.43;;
59338;SDS011;45117;50.960;5.500;2023-07-02T09:09:30;28.33;;;11.18;;
59338;SDS011;45117;50.960;5.500;2023-07-02T09:11:57;26.67;;;11.30;;
59338;SDS011;45117;50.960;5.500;2023-07-02T09:14:24;21.25;;;9.60;;
59338;SDS011;45117;50.960;5.500;2023-07-02T09:17:04;27.88;;;10.57;;
59338;SDS011;45117;50.960;5.500;2023-07-02T09:19:36;24.63;;;9.63;;
59338;SDS011;45117;50.960;5.500;2023-07-02T09:22:24;22.63;;;9.85;;
59338;SDS011;45117;50.960;5.500;2023-07-02T09:25:04;24.52;;;10.02;;
59338;SDS011;45117;50.960;5.500;2023-07-02T09:27:34;21.55;;;9.38;;
59338;SDS011;45117;50.960;5.500;2023-07-02T09:30:05;24.13;;;10.05;;
59338;SDS011;45117;50.960;5.500;2023-07-02T09:32:33;25.02;;;9.85;;
59338;SDS011;45117;50.960;5.500;2023-07-02T09:35:11;22.30;;;9.30;;
59338;SDS011;45117;50.960;5.500;2023-07-02T09:37:39;24.42;;;9.55;;
59338;SDS011;45117;50.960;5.500;2023-07-02T09:40:09;19.33;;;8.05;;
59338;SDS011;45117;50.960;5.500;2023-07-02T09:42:36;19.13;;;8.60;;
59338;SDS011;45117;50.960;5.500;2023-07-02T09:45:06;20.67;;;8.32;;
59338;SDS011;45117;50.960;5.500;2023-07-02T09:47:36;22.75;;;8.63;;
59338;SDS011;45117;50.960;5.500;2023-07-02T09:50:08;15.98;;;7.88;;
59338;SDS011;45117;50.960;5.500;2023-07-02T09:52:40;19.00;;;7.45;;
59338;SDS011;45117;50.960;5.500;2023-07-02T09:55:08;17.02;;;7.57;;
59338;SDS011;45117;50.960;5.500;2023-07-02T09:57:35;20.40;;;7.60;;
59338;SDS011;45117;50.960;5.500;2023-07-02T10:00:02;16.42;;;7.80;;
59338;SDS011;45117;50.960;5.500;2023-07-02T10:02:30;18.15;;;7.18;;
59338;SDS011;45117;50.960;5.500;2023-07-02T10:04:56;14.50;;;6.55;;
59338;SDS011;45117;50.960;5.500;2023-07-02T10:07:28;16.67;;;6.63;;
59338;SDS011;45117;50.960;5.500;2023-07-02T10:09:59;20.15;;;7.68;;
59338;SDS011;45117;50.960;5.500;2023-07-02T10:12:45;15.50;;;7.05;;
59338;SDS011;45117;50.960;5.500;2023-07-02T10:15:12;20.52;;;7.18;;
59338;SDS011;45117;50.960;5.500;2023-07-02T10:17:56;18.13;;;7.45;;
59338;SDS011;45117;50.960;5.500;2023-07-02T10:20:31;17.48;;;7.43;;
59338;SDS011;45117;50.960;5.500;2023-07-02T10:23:01;18.05;;;7.63;;
59338;SDS011;45117;50.960;5.500;2023-07-02T10:25:28;14.60;;;6.70;;
59338;SDS011;45117;50.960;5.500;2023-07-02T10:27:56;16.15;;;7.22;;
59338;SDS011;45117;50.960;5.500;2023-07-02T10:30:32;15.98;;;6.82;;
59338;SDS011;45117;50.960;5.500;2023-07-02T10:33:13;22.83;;;7.18;;
59338;SDS011;45117;50.960;5.500;2023-07-02T10:35:44;16.50;;;6.50;;
59338;SDS011;45117;50.960;5.500;2023-07-02T10:38:17;19.17;;;6.85;;
59338;SDS011;45117;50.960;5.500;2023-07-02T10:40:53;15.18;;;6.53;;
59338;SDS011;45117;50.960;5.500;2023-07-02T10:43:24;24.50;;;7.60;;
59338;SDS011;45117;50.960;5.500;2023-07-02T10:45:50;16.33;;;7.25;;
59338;SDS011;45117;50.960;5.500;2023-07-02T10:48:17;19.90;;;8.40;;
59338;SDS011;45117;50.960;5.500;2023-07-02T10:50:44;19.83;;;7.68;;
59338;SDS011;45117;50.960;5.500;2023-07-02T10:53:14;18.15;;;7.75;;
59338;SDS011;45117;50.960;5.500;2023-07-02T11:02:17;21.52;;;8.93;;
59338;SDS011;45117;50.960;5.500;2023-07-02T11:04:53;23.42;;;8.73;;
59338;SDS011;45117;50.960;5.500;2023-07-02T11:07:22;21.67;;;8.85;;
59338;SDS011;45117;50.960;5.500;2023-07-02T11:09:49;18.60;;;8.18;;
59338;SDS011;45117;50.960;5.500;2023-07-02T11:12:16;18.50;;;8.57;;
59338;SDS011;45117;50.960;5.500;2023-07-02T11:14:46;19.73;;;8.65;;
59338;SDS011;45117;50.960;5.500;2023-07-02T11:17:13;21.05;;;8.55;;
59338;SDS011;45117;50.960;5.500;2023-07-02T11:19:49;21.33;;;8.82;;
59338;SDS011;45117;50.960;5.500;2023-07-02T11:22:17;29.92;;;9.65;;
59338;SDS011;45117;50.960;5.500;2023-07-02T11:24:43;20.58;;;8.90;;
59338;SDS011;45117;50.960;5.500;2023-07-02T11:27:10;22.52;;;8.63;;
59338;SDS011;45117;50.960;5.500;2023-07-02T11:29:47;24.70;;;9.90;;
59338;SDS011;45117;50.960;5.500;2023-07-02T11:32:14;21.92;;;9.88;;
